createdAt,value
2019-02-20T00:01:51.400Z,23.46
2019-02-20T00:04:18.053Z,23.42
2019-02-20T00:06:46.764Z,23.47
2019-02-20T00:09:13.431Z,23.45
2019-02-20T00:11:40.083Z,23.38
2019-02-20T00:14:06.755Z,23.42
2019-02-20T00:16:33.422Z,23.40
2019-02-20T00:19:00.077Z,23.37
2019-02-20T00:21:26.734Z,23.41
2019-02-20T00:23:53.373Z,23.40
2019-02-20T00:26:20.025Z,23.38
2019-02-20T00:28:46.678Z,23.40
2019-02-20T00:31:13.332Z,23.36
2019-02-20T00:33:40.021Z,23.36
2019-02-20T00:36:06.670Z,23.35
2019-02-20T00:38:33.331Z,23.35
2019-02-20T00:40:59.985Z,23.33
2019-02-20T00:43:26.652Z,23.30
2019-02-20T00:45:53.303Z,23.33
2019-02-20T00:48:19.969Z,23.31
2019-02-20T00:50:46.642Z,23.33
2019-02-20T00:53:13.301Z,23.29
2019-02-20T00:55:40.016Z,23.28
2019-02-20T00:58:06.684Z,23.26
2019-02-20T01:00:33.362Z,23.28
2019-02-20T01:03:00.114Z,23.26
2019-02-20T01:05:26.773Z,23.22
2019-02-20T01:07:53.451Z,23.29
2019-02-20T01:10:20.259Z,23.27
2019-02-20T01:12:46.924Z,23.23
2019-02-20T01:15:13.601Z,23.24
2019-02-20T01:17:40.268Z,23.24
2019-02-20T01:20:06.926Z,23.21
2019-02-20T01:22:33.597Z,23.24
2019-02-20T01:25:00.430Z,23.25
2019-02-20T01:27:26.918Z,23.22
2019-02-20T01:29:53.578Z,23.22
2019-02-20T01:32:20.241Z,23.24
2019-02-20T01:34:46.886Z,23.25
2019-02-20T01:37:13.548Z,23.17
2019-02-20T01:39:40.221Z,23.13
2019-02-20T01:42:06.889Z,23.12
2019-02-20T01:44:33.553Z,23.13
2019-02-20T01:47:00.293Z,23.14
2019-02-20T01:49:26.965Z,23.12
2019-02-20T01:51:53.624Z,23.09
2019-02-20T01:54:20.270Z,23.05
2019-02-20T01:56:46.943Z,23.01
2019-02-20T01:59:13.665Z,23.03
2019-02-20T02:01:40.250Z,23.04
2019-02-20T02:04:06.917Z,23.02
2019-02-20T02:06:33.639Z,23.02
2019-02-20T02:09:00.302Z,23.02
2019-02-20T02:11:26.952Z,23.01
2019-02-20T02:13:53.615Z,23.01
2019-02-20T02:16:20.291Z,22.99
2019-02-20T02:18:46.945Z,22.99
2019-02-20T02:21:13.605Z,22.99
2019-02-20T02:23:40.271Z,23.00
2019-02-20T02:26:10.934Z,23.01
2019-02-20T02:28:33.707Z,22.97
2019-02-20T02:31:00.367Z,22.92
2019-02-20T02:33:28.380Z,22.95
2019-02-20T02:35:53.688Z,22.94
2019-02-20T02:38:20.354Z,22.94
2019-02-20T02:40:47.017Z,22.97
2019-02-20T02:43:13.729Z,22.94
2019-02-20T02:45:40.389Z,22.91
2019-02-20T02:48:07.059Z,22.91
2019-02-20T02:50:33.752Z,22.90
2019-02-20T02:53:00.429Z,22.90
2019-02-20T02:55:27.095Z,22.88
2019-02-20T02:57:53.850Z,22.88
2019-02-20T03:00:20.547Z,22.88
2019-02-20T03:02:47.163Z,22.85
2019-02-20T03:05:13.817Z,22.83
2019-02-20T03:07:40.524Z,22.85
2019-02-20T03:10:07.173Z,22.80
2019-02-20T03:12:33.839Z,22.82
2019-02-20T03:15:00.524Z,22.80
2019-02-20T03:17:27.211Z,22.78
2019-02-20T03:19:53.860Z,22.77
2019-02-20T03:22:20.523Z,22.76
2019-02-20T03:24:47.190Z,22.76
2019-02-20T03:27:13.901Z,22.76
2019-02-20T03:29:40.560Z,22.76
2019-02-20T03:32:07.239Z,22.79
2019-02-20T03:34:33.912Z,22.77
2019-02-20T03:37:00.575Z,22.76
2019-02-20T03:39:27.240Z,22.72
2019-02-20T03:41:53.901Z,22.75
2019-02-20T03:44:20.608Z,22.69
2019-02-20T03:46:47.286Z,22.68
2019-02-20T03:49:13.989Z,22.70
2019-02-20T03:51:40.699Z,22.69
2019-02-20T03:54:07.359Z,22.69
2019-02-20T03:56:34.007Z,22.67
2019-02-20T03:59:00.669Z,22.71
2019-02-20T04:01:27.368Z,22.74
2019-02-20T04:03:54.016Z,22.74
2019-02-20T04:06:20.668Z,22.21
2019-02-20T04:08:47.334Z,21.74
2019-02-20T04:11:13.991Z,21.32
2019-02-20T04:13:40.659Z,21.26
2019-02-20T04:16:07.306Z,21.16
2019-02-20T04:18:34.004Z,20.95
2019-02-20T04:21:00.713Z,21.05
2019-02-20T04:23:27.387Z,20.79
2019-02-20T04:25:54.048Z,20.62
2019-02-20T04:28:20.803Z,20.41
2019-02-20T04:30:47.465Z,20.39
2019-02-20T04:33:14.158Z,20.67
2019-02-20T04:35:40.839Z,21.13
2019-02-20T04:38:07.497Z,21.44
2019-02-20T04:40:34.183Z,21.57
2019-02-20T04:43:00.838Z,21.63
2019-02-20T04:45:27.491Z,21.80
2019-02-20T04:47:54.147Z,21.84
2019-02-20T04:50:20.851Z,21.91
2019-02-20T04:52:47.519Z,21.97
2019-02-20T04:55:14.176Z,22.02
2019-02-20T04:57:40.833Z,22.05
2019-02-20T05:00:07.476Z,22.08
2019-02-20T05:02:34.140Z,22.15
2019-02-20T05:05:00.807Z,22.17
2019-02-20T05:07:27.465Z,22.17
2019-02-20T05:09:54.127Z,22.20
2019-02-20T05:12:20.842Z,22.26
2019-02-20T05:14:47.503Z,22.21
2019-02-20T05:17:14.196Z,22.22
2019-02-20T05:19:40.860Z,22.24
2019-02-20T05:22:07.529Z,22.24
2019-02-20T05:24:34.186Z,22.29
2019-02-20T05:27:00.838Z,22.39
2019-02-20T05:29:27.521Z,22.32
2019-02-20T05:31:54.178Z,22.35
2019-02-20T05:34:20.973Z,22.34
2019-02-20T05:36:47.501Z,22.42
2019-02-20T05:39:14.185Z,22.48
2019-02-20T05:41:40.840Z,22.51
2019-02-20T05:44:07.518Z,22.64
2019-02-20T05:46:34.233Z,22.74
2019-02-20T05:49:00.924Z,22.87
2019-02-20T05:51:27.582Z,22.99
2019-02-20T05:53:54.236Z,23.03
2019-02-20T05:56:20.913Z,22.75
2019-02-20T05:58:49.703Z,22.71
2019-02-20T06:01:14.237Z,22.80
2019-02-20T06:03:40.897Z,22.95
2019-02-20T06:06:07.552Z,22.89
2019-02-20T06:08:34.219Z,23.65
2019-02-20T06:11:00.888Z,23.06
2019-02-20T06:13:27.549Z,23.06
2019-02-20T06:15:54.273Z,23.05
2019-02-20T06:20:47.289Z,23.16
2019-02-20T06:23:13.971Z,23.15
2019-02-20T06:25:40.659Z,23.22
2019-02-20T06:28:07.320Z,23.31
2019-02-20T06:30:33.987Z,23.44
2019-02-20T06:33:00.835Z,23.46
2019-02-20T06:35:27.474Z,23.48
2019-02-20T06:37:54.115Z,23.48
2019-02-20T06:40:20.791Z,23.60
2019-02-20T06:42:47.465Z,23.58
2019-02-20T06:45:14.127Z,23.59
2019-02-20T06:47:40.798Z,23.68
2019-02-20T06:50:07.506Z,23.69
2019-02-20T06:52:34.165Z,23.83
2019-02-20T06:55:00.875Z,23.97
2019-02-20T06:57:27.538Z,23.97
2019-02-20T06:59:54.193Z,24.14
2019-02-20T07:02:20.883Z,24.09
2019-02-20T07:04:47.721Z,24.13
2019-02-20T07:07:14.425Z,24.08
2019-02-20T07:09:41.086Z,24.27
2019-02-20T07:12:07.766Z,24.27
2019-02-20T07:14:34.408Z,24.33
2019-02-20T07:17:01.110Z,24.34
2019-02-20T07:19:27.782Z,24.41
2019-02-20T07:21:54.471Z,24.47
2019-02-20T07:24:21.235Z,24.42
2019-02-20T07:26:47.975Z,24.47
2019-02-20T07:29:14.644Z,24.54
2019-02-20T07:31:41.335Z,24.64
2019-02-20T07:34:08.076Z,24.59
2019-02-20T07:36:34.734Z,24.70
2019-02-20T07:39:01.436Z,24.72
2019-02-20T07:41:28.109Z,24.81
2019-02-20T07:43:54.951Z,24.74
2019-02-20T07:46:22.818Z,24.85
2019-02-20T07:48:49.513Z,24.78
2019-02-20T07:51:16.156Z,24.77
2019-02-20T07:53:42.815Z,24.65
2019-02-20T07:56:09.483Z,24.59
2019-02-20T07:58:36.131Z,24.62
2019-02-20T08:01:02.812Z,24.60
2019-02-20T08:03:29.756Z,24.69
2019-02-20T08:05:56.195Z,24.66
2019-02-20T08:08:22.867Z,24.55
2019-02-20T08:10:49.518Z,24.57
2019-02-20T08:13:16.200Z,24.63
2019-02-20T08:15:42.854Z,24.57
2019-02-20T08:18:09.561Z,24.65
2019-02-20T08:20:36.257Z,24.58
2019-02-20T08:23:02.911Z,24.63
2019-02-20T08:25:29.578Z,24.69
2019-02-20T08:27:56.304Z,24.70
2019-02-20T08:30:23.100Z,24.73
2019-02-20T08:32:49.782Z,24.79
2019-02-20T08:35:16.458Z,24.82
2019-02-20T08:37:43.142Z,24.83
2019-02-20T08:40:09.856Z,24.81
2019-02-20T08:42:36.547Z,24.87
2019-02-20T08:45:03.343Z,25.06
2019-02-20T08:47:30.030Z,25.02
2019-02-20T08:49:56.852Z,25.08
2019-02-20T08:52:23.500Z,25.04
2019-02-20T08:54:50.165Z,25.02
2019-02-20T08:57:16.951Z,25.13
2019-02-20T08:59:43.776Z,25.06
2019-02-20T09:02:10.458Z,25.09
2019-02-20T09:04:37.160Z,25.05
2019-02-20T09:07:03.861Z,24.99
2019-02-20T09:09:30.522Z,24.97
2019-02-20T09:11:57.256Z,25.03
2019-02-20T09:14:23.952Z,24.88
2019-02-20T09:16:50.648Z,24.78
2019-02-20T09:19:17.310Z,24.68
2019-02-20T09:21:45.106Z,24.62
2019-02-20T09:24:11.764Z,24.75
2019-02-20T09:26:38.484Z,24.83
2019-02-20T09:29:05.153Z,24.98
2019-02-20T09:31:31.851Z,24.75
2019-02-20T09:33:58.547Z,24.91
2019-02-20T09:36:25.226Z,24.97
2019-02-20T09:38:51.930Z,24.91
2019-02-20T09:41:18.631Z,24.89
2019-02-20T09:43:45.295Z,24.87
2019-02-20T09:46:12.002Z,24.85
2019-02-20T09:48:38.676Z,24.91
2019-02-20T09:51:05.370Z,24.95
2019-02-20T09:53:32.060Z,24.85
2019-02-20T09:56:01.276Z,24.94
2019-02-20T09:58:27.997Z,24.95
2019-02-20T10:00:54.675Z,25.07
2019-02-20T10:03:23.514Z,24.93
2019-02-20T10:05:48.091Z,24.97
2019-02-20T10:08:14.753Z,25.01
2019-02-20T10:10:41.523Z,24.96
2019-02-20T10:13:10.950Z,24.98
2019-02-20T10:15:34.875Z,25.16
2019-02-20T10:18:01.581Z,25.17
2019-02-20T10:20:28.272Z,25.24
2019-02-20T10:22:54.976Z,25.10
2019-02-20T10:25:21.659Z,25.20
2019-02-20T10:27:48.342Z,25.33
2019-02-20T10:30:15.074Z,25.21
2019-02-20T10:32:41.786Z,25.21
2019-02-20T10:35:08.594Z,25.26
2019-02-20T10:37:35.253Z,25.34
2019-02-20T10:40:01.926Z,25.27
2019-02-20T10:42:31.877Z,25.22
2019-02-20T10:44:58.555Z,25.20
2019-02-20T10:47:25.212Z,25.22
2019-02-20T10:49:51.909Z,25.25
2019-02-20T10:52:18.711Z,25.27
2019-02-20T10:54:45.656Z,25.28
2019-02-20T10:57:12.044Z,25.31
2019-02-20T10:59:38.717Z,25.29
2019-02-20T11:02:05.391Z,25.33
2019-02-20T11:04:33.258Z,25.36
2019-02-20T11:06:59.985Z,25.33
2019-02-20T11:09:26.671Z,25.36
2019-02-20T11:11:54.520Z,25.40
2019-02-20T11:14:20.075Z,25.40
2019-02-20T11:16:46.719Z,25.45
2019-02-20T11:19:13.412Z,25.41
2019-02-20T11:21:40.116Z,25.46
2019-02-20T11:24:06.792Z,25.39
2019-02-20T11:26:33.460Z,25.43
2019-02-20T11:29:00.126Z,25.47
2019-02-20T11:31:26.836Z,25.53
2019-02-20T11:33:53.734Z,25.50
2019-02-20T11:36:20.421Z,25.51
2019-02-20T11:38:47.092Z,25.53
2019-02-20T11:41:13.845Z,25.48
2019-02-20T11:43:40.599Z,25.61
2019-02-20T11:46:07.433Z,25.67
2019-02-20T11:48:34.125Z,25.69
2019-02-20T11:51:00.860Z,25.73
2019-02-20T11:53:27.656Z,25.67
2019-02-20T11:55:54.312Z,25.75
2019-02-20T11:58:21.015Z,25.70
2019-02-20T12:00:47.679Z,25.69
2019-02-20T12:03:14.402Z,25.69
2019-02-20T12:05:41.153Z,25.68
2019-02-20T12:08:07.850Z,25.78
2019-02-20T12:10:34.543Z,25.75
2019-02-20T12:13:01.233Z,25.74
2019-02-20T12:15:27.941Z,25.88
2019-02-20T12:17:54.647Z,25.72
2019-02-20T12:20:21.315Z,25.71
2019-02-20T12:22:47.972Z,25.79
2019-02-20T12:25:14.656Z,25.77
2019-02-20T12:27:41.416Z,25.75
2019-02-20T12:30:08.129Z,25.73
2019-02-20T12:32:34.860Z,25.60
2019-02-20T12:35:01.553Z,25.49
2019-02-20T12:37:28.308Z,25.46
2019-02-20T12:39:55.201Z,25.43
2019-02-20T12:42:21.924Z,25.42
2019-02-20T12:44:48.628Z,25.53
2019-02-20T12:47:15.306Z,25.52
2019-02-20T12:49:41.982Z,25.53
2019-02-20T12:52:08.706Z,25.64
2019-02-20T12:54:35.370Z,25.61
2019-02-20T12:57:03.133Z,25.71
2019-02-20T12:59:29.932Z,25.71
2019-02-20T13:01:56.628Z,25.69
2019-02-20T13:04:24.575Z,25.79
2019-02-20T13:06:59.180Z,25.74
2019-02-20T13:09:16.681Z,25.78
2019-02-20T13:11:48.851Z,25.80
2019-02-20T13:14:16.631Z,25.71
2019-02-20T13:16:43.336Z,25.93
2019-02-20T13:19:10.030Z,25.79
2019-02-20T13:21:36.709Z,25.87
2019-02-20T13:24:03.377Z,25.88
2019-02-20T13:26:30.091Z,26.05
2019-02-20T13:28:56.850Z,25.92
2019-02-20T13:31:23.610Z,25.95
2019-02-20T13:33:50.426Z,25.89
2019-02-20T13:36:17.147Z,25.92
2019-02-20T13:38:43.908Z,26.00
2019-02-20T13:41:12.446Z,26.03
2019-02-20T13:43:37.238Z,25.88
2019-02-20T13:46:03.926Z,26.01
2019-02-20T13:48:30.672Z,26.03
2019-02-20T13:50:57.341Z,26.05
2019-02-20T13:53:24.029Z,25.92
2019-02-20T13:55:50.734Z,26.08
2019-02-20T13:58:17.756Z,26.07
2019-02-20T14:00:44.062Z,26.07
2019-02-20T14:03:10.750Z,25.98
2019-02-20T14:05:37.429Z,26.00
2019-02-20T14:08:04.108Z,26.03
2019-02-20T14:10:30.763Z,26.00
2019-02-20T14:12:57.489Z,26.04
2019-02-20T14:15:24.154Z,26.01
2019-02-20T14:17:50.830Z,25.94
2019-02-20T14:20:17.540Z,25.95
2019-02-20T14:22:45.791Z,26.02
2019-02-20T14:25:10.931Z,25.93
2019-02-20T14:27:37.693Z,25.87
2019-02-20T14:30:04.354Z,25.88
2019-02-20T14:32:31.165Z,26.01
2019-02-20T14:34:57.854Z,25.94
2019-02-20T14:37:24.579Z,25.92
2019-02-20T14:39:51.234Z,25.99
2019-02-20T14:42:18.056Z,25.86
2019-02-20T14:44:44.717Z,25.99
2019-02-20T14:47:11.517Z,25.99
2019-02-20T14:49:38.212Z,26.16
2019-02-20T14:52:05.392Z,25.94
2019-02-20T14:54:32.060Z,25.79
2019-02-20T14:56:58.813Z,25.85
2019-02-20T14:59:25.510Z,25.68
2019-02-20T15:01:52.365Z,25.84
2019-02-20T15:04:19.018Z,25.76
2019-02-20T15:06:45.717Z,25.73
2019-02-20T15:09:12.373Z,25.71
2019-02-20T15:11:39.109Z,25.64
2019-02-20T15:14:05.785Z,25.72
2019-02-20T15:16:32.506Z,25.61
2019-02-20T15:18:59.177Z,25.58
2019-02-20T15:21:25.882Z,25.58
2019-02-20T15:23:52.542Z,25.64
2019-02-20T15:26:19.191Z,25.56
2019-02-20T15:28:45.954Z,25.53
2019-02-20T15:31:12.599Z,25.48
2019-02-20T15:33:39.256Z,25.45
2019-02-20T15:36:06.065Z,25.41
2019-02-20T15:38:32.838Z,25.47
2019-02-20T15:40:59.508Z,25.47
2019-02-20T15:43:26.263Z,25.45
2019-02-20T15:45:53.069Z,25.54
2019-02-20T15:48:23.254Z,25.36
2019-02-20T15:50:47.684Z,25.34
2019-02-20T15:53:14.506Z,25.26
2019-02-20T15:55:41.291Z,25.28
2019-02-20T15:58:07.938Z,25.28
2019-02-20T16:00:34.571Z,25.26
2019-02-20T16:03:01.236Z,25.24
2019-02-20T16:05:27.941Z,25.21
2019-02-20T16:07:54.613Z,25.18
2019-02-20T16:10:21.679Z,25.17
2019-02-20T16:12:47.939Z,25.15
2019-02-20T16:15:14.818Z,25.17
2019-02-20T16:17:41.319Z,25.17
2019-02-20T16:20:08.005Z,25.18
2019-02-20T16:22:34.655Z,25.13
2019-02-20T16:25:01.325Z,25.16
2019-02-20T16:27:27.990Z,25.13
2019-02-20T16:29:54.698Z,25.20
2019-02-20T16:32:21.352Z,25.17
2019-02-20T16:34:48.030Z,25.11
2019-02-20T16:37:14.699Z,25.12
2019-02-20T16:39:41.409Z,25.15
2019-02-20T16:42:08.154Z,25.09
2019-02-20T16:44:34.808Z,25.11
2019-02-20T16:47:01.480Z,25.09
2019-02-20T16:49:28.163Z,25.07
2019-02-20T16:51:54.848Z,25.06
2019-02-20T16:54:21.695Z,25.04
2019-02-20T16:56:48.348Z,24.99
2019-02-20T16:59:15.022Z,25.01
2019-02-20T17:01:41.722Z,25.07
2019-02-20T17:04:08.398Z,25.01
2019-02-20T17:06:35.106Z,24.98
2019-02-20T17:09:01.759Z,24.95
2019-02-20T17:11:28.461Z,24.94
2019-02-20T17:13:55.159Z,24.92
2019-02-20T17:16:21.854Z,24.93
2019-02-20T17:18:48.512Z,24.90
2019-02-20T17:21:15.155Z,24.90
2019-02-20T17:23:41.862Z,24.88
2019-02-20T17:26:08.516Z,24.87
2019-02-20T17:28:35.206Z,24.84
2019-02-20T17:31:01.882Z,24.82
2019-02-20T17:33:28.543Z,24.83
2019-02-20T17:35:55.234Z,24.82
2019-02-20T17:38:21.893Z,24.73
2019-02-20T17:40:48.603Z,24.78
2019-02-20T17:43:15.259Z,24.78
2019-02-20T17:45:41.916Z,24.75
2019-02-20T17:48:08.623Z,24.76
2019-02-20T17:50:35.290Z,24.76
2019-02-20T17:53:01.943Z,24.74
2019-02-20T17:55:28.645Z,24.71
2019-02-20T17:57:55.354Z,24.71
2019-02-20T18:00:22.031Z,24.69
2019-02-20T18:02:48.680Z,24.70
2019-02-20T18:05:15.359Z,24.67
2019-02-20T18:07:48.786Z,24.68
2019-02-20T18:10:08.814Z,24.67
2019-02-20T18:12:35.484Z,24.66
2019-02-20T18:15:02.123Z,24.62
2019-02-20T18:17:28.786Z,24.64
2019-02-20T18:19:55.437Z,24.64
2019-02-20T18:22:22.190Z,24.71
2019-02-20T18:24:48.842Z,24.61
2019-02-20T18:27:15.491Z,24.61
2019-02-20T18:29:42.167Z,24.60
2019-02-20T18:32:08.828Z,24.57
2019-02-20T18:34:35.480Z,24.56
2019-02-20T18:37:02.200Z,24.59
2019-02-20T18:39:28.851Z,24.55
2019-02-20T18:41:55.497Z,24.55
2019-02-20T18:44:22.138Z,24.52
2019-02-20T18:46:48.801Z,24.53
2019-02-20T18:49:15.478Z,24.53
2019-02-20T18:51:42.122Z,24.51
2019-02-20T18:54:08.787Z,24.53
2019-02-20T18:56:35.437Z,24.50
2019-02-20T18:59:02.141Z,24.49
2019-02-20T19:01:28.766Z,24.47
2019-02-20T19:03:56.754Z,24.48
2019-02-20T19:06:22.077Z,24.45
2019-02-20T19:08:48.735Z,24.44
2019-02-20T19:11:15.403Z,24.44
2019-02-20T19:13:42.185Z,24.46
2019-02-20T19:16:08.859Z,24.52
2019-02-20T19:18:35.533Z,24.47
2019-02-20T19:21:02.174Z,24.42
2019-02-20T19:23:28.803Z,24.39
2019-02-20T19:25:55.498Z,24.36
2019-02-20T19:28:22.130Z,24.32
2019-02-20T19:30:48.789Z,24.32
2019-02-20T19:33:15.484Z,24.29
2019-02-20T19:35:42.089Z,24.28
2019-02-20T19:38:09.554Z,24.23
2019-02-20T19:40:35.421Z,24.26
2019-02-20T19:43:02.083Z,24.24
2019-02-20T19:45:28.728Z,24.22
2019-02-20T19:47:55.390Z,24.23
2019-02-20T19:50:22.103Z,24.19
2019-02-20T19:52:48.703Z,24.16
2019-02-20T19:55:15.359Z,24.15
2019-02-20T19:57:42.150Z,24.16
2019-02-20T20:00:08.796Z,24.14
2019-02-20T20:02:35.457Z,24.12
2019-02-20T20:05:02.125Z,24.13
2019-02-20T20:07:28.782Z,24.09
2019-02-20T20:09:55.431Z,24.09
2019-02-20T20:12:22.112Z,24.06
2019-02-20T20:14:48.766Z,24.08
2019-02-20T20:17:15.489Z,24.06
2019-02-20T20:19:42.079Z,24.00
2019-02-20T20:22:08.724Z,23.94
2019-02-20T20:24:35.412Z,24.02
2019-02-20T20:27:02.155Z,23.98
2019-02-20T20:29:28.899Z,23.98
2019-02-20T20:31:55.564Z,23.92
2019-02-20T20:34:22.203Z,23.95
2019-02-20T20:36:50.916Z,23.84
2019-02-20T20:39:17.508Z,23.68
2019-02-20T20:41:42.191Z,23.55
2019-02-20T20:44:08.857Z,23.59
2019-02-20T20:46:35.624Z,23.59
2019-02-20T20:49:02.294Z,23.62
2019-02-20T20:51:28.939Z,23.62
2019-02-20T20:53:56.316Z,23.63
2019-02-20T20:56:22.267Z,23.67
2019-02-20T20:58:48.967Z,23.65
2019-02-20T21:01:15.635Z,23.64
2019-02-20T21:03:42.301Z,23.62
2019-02-20T21:06:08.944Z,23.63
2019-02-20T21:08:35.612Z,23.66
2019-02-20T21:11:02.276Z,23.66
2019-02-20T21:13:29.051Z,23.65
2019-02-20T21:15:55.615Z,23.64
2019-02-20T21:18:22.290Z,23.63
2019-02-20T21:20:48.943Z,23.64
2019-02-20T21:23:15.612Z,23.64
2019-02-20T21:25:42.259Z,23.63
2019-02-20T21:28:08.935Z,23.63
2019-02-20T21:30:35.598Z,23.62
2019-02-20T21:33:02.280Z,23.60
2019-02-20T21:35:28.944Z,23.61
2019-02-20T21:37:55.593Z,23.59
2019-02-20T21:40:22.365Z,23.59
2019-02-20T21:42:49.014Z,23.56
2019-02-20T21:45:15.666Z,23.59
2019-02-20T21:47:42.319Z,23.58
2019-02-20T21:50:08.993Z,23.56
2019-02-20T21:52:35.675Z,23.58
2019-02-20T21:55:02.348Z,23.58
2019-02-20T21:57:29.836Z,23.59
2019-02-20T21:59:56.481Z,23.53
2019-02-20T22:02:23.142Z,23.54
2019-02-20T22:04:49.800Z,23.54
2019-02-20T22:07:16.459Z,23.51
2019-02-20T22:09:43.118Z,23.51
2019-02-20T22:12:09.814Z,23.53
2019-02-20T22:14:36.472Z,23.51
2019-02-20T22:17:03.134Z,23.50
2019-02-20T22:19:29.803Z,23.50
2019-02-20T22:21:56.465Z,23.51
2019-02-20T22:24:23.328Z,23.52
2019-02-20T22:26:49.784Z,23.48
2019-02-20T22:29:16.431Z,23.46
2019-02-20T22:31:43.101Z,23.47
2019-02-20T22:34:09.752Z,23.48
2019-02-20T22:36:36.422Z,23.46
2019-02-20T22:39:03.076Z,23.47
2019-02-20T22:41:29.738Z,23.47
2019-02-20T22:43:56.403Z,23.45
2019-02-20T22:46:23.080Z,23.46
2019-02-20T22:48:49.743Z,23.45
2019-02-20T22:51:16.394Z,23.43
2019-02-20T22:53:43.055Z,23.45
2019-02-20T22:56:09.750Z,23.44
2019-02-20T22:58:36.535Z,23.45
2019-02-20T23:01:03.189Z,23.45
2019-02-20T23:03:29.896Z,23.41
2019-02-20T23:05:56.564Z,23.43
2019-02-20T23:08:23.217Z,23.40
2019-02-20T23:10:49.877Z,23.39
2019-02-20T23:13:16.528Z,23.39
2019-02-20T23:15:43.408Z,23.42
2019-02-20T23:18:09.838Z,23.39
2019-02-20T23:20:36.536Z,23.38
2019-02-20T23:23:03.197Z,23.38
2019-02-20T23:25:29.848Z,23.38
2019-02-20T23:27:56.522Z,23.36
2019-02-20T23:30:23.172Z,23.37
2019-02-20T23:32:49.822Z,23.39
2019-02-20T23:35:16.489Z,23.37
2019-02-20T23:37:43.134Z,23.38
2019-02-20T23:40:09.811Z,23.35
2019-02-20T23:42:36.491Z,23.35
2019-02-20T23:45:03.166Z,23.33
2019-02-20T23:47:29.882Z,23.33
2019-02-20T23:49:56.704Z,23.33
2019-02-20T23:52:23.291Z,23.33
2019-02-20T23:54:49.969Z,23.31
2019-02-20T23:57:16.629Z,23.29
2019-02-20T23:59:43.285Z,23.32
